Ora Direzione Vento Velocita' Vento Media Vento Raffica Max. Temperatura Wind Chill Pioggia Pressione
18:02:24.00 °(N)8.2 Kts8.7 Kts19.8 Kts16.1 °C15.4 °C0.0 mm1022.2 Hpa
17:40:54.00 °(N)6.6 Kts7.0 Kts19.8 Kts16.1 °C15.7 °C0.0 mm1022.2 Hpa
17:21:37.0338 °(NNW)8.0 Kts7.6 Kts19.8 Kts15.9 °C15.2 °C0.0 mm1022.3 Hpa
17:02:21.00 °(N)8.2 Kts8.7 Kts19.8 Kts15.9 °C15.2 °C0.0 mm1022.4 Hpa
16:40:47.00 °(N)8.6 Kts9.1 Kts19.8 Kts15.9 °C15.1 °C0.0 mm1022.4 Hpa
16:21:28.00 °(N)7.8 Kts7.8 Kts19.8 Kts15.9 °C15.2 °C0.0 mm1022.5 Hpa
16:02:06.023 °(NNE)8.4 Kts9.3 Kts19.8 Kts15.8 °C15.0 °C0.0 mm1022.6 Hpa
15:40:41.00 °(N)9.1 Kts10.3 Kts19.8 Kts15.8 °C14.9 °C0.0 mm1022.6 Hpa
15:21:23.00 °(N)9.9 Kts10.3 Kts19.8 Kts15.6 °C14.6 °C0.0 mm1022.7 Hpa
15:02:01.00 °(N)12.4 Kts11.9 Kts19.8 Kts15.6 °C14.3 °C0.0 mm1022.9 Hpa
14:40:37.00 °(N)8.7 Kts10.3 Kts19.8 Kts15.4 °C14.5 °C0.0 mm1023.0 Hpa
14:21:24.00 °(N)10.5 Kts10.7 Kts19.8 Kts15.3 °C14.1 °C0.0 mm1023.2 Hpa
14:02:06.00 °(N)9.5 Kts10.3 Kts19.8 Kts15.3 °C14.2 °C0.0 mm1023.3 Hpa
13:40:38.00 °(N)11.9 Kts12.6 Kts19.8 Kts15.1 °C13.7 °C0.0 mm1023.1 Hpa
13:21:25.00 °(N)12.6 Kts12.4 Kts19.8 Kts14.9 °C13.3 °C0.0 mm1023.2 Hpa
13:02:11.00 °(N)13.8 Kts13.2 Kts19.8 Kts14.9 °C13.2 °C0.0 mm1023.3 Hpa
12:40:42.00 °(N)13.6 Kts14.4 Kts19.8 Kts14.7 °C13.0 °C0.0 mm1023.2 Hpa
12:21:18.0338 °(NNW)14.4 Kts14.2 Kts19.8 Kts14.4 °C12.5 °C0.0 mm1023.2 Hpa
12:01:49.00 °(N)14.8 Kts14.6 Kts19.8 Kts14.3 °C12.3 °C0.0 mm1023.3 Hpa
11:40:27.0338 °(NNW)12.4 Kts12.6 Kts19.8 Kts14.1 °C12.3 °C0.0 mm1023.6 Hpa